Portada
METAR-TAF:

METAR-TAF

Aeroports :

Bowman Field

Louisville, Kentucky, Estats Units d'Amèrica

latitud: 38-13-40N, longitud: 085-39-49W, altitud: 166 m

Observació

L'informe es va fer fa 22 minuts, a les 01:53 UTC
Vent 10 kt del Oest/Nord-Oest amb ràfegues de 17 kt
Temperatura 23°C
Humitat 38%
Pressió 1014 hPa
Visibilitat: 16.1 km
Cel clar

METAR: KLOU 180153Z 29010G17KT 10SM CLR 23/08 A2995 RMK AO2 SLP137 T02280078

Hora: 22:15 (02:15 UTC)


TAF: manca

Observacions i pronòstics meteorològics de més de 4000 aeroports (METAR i TAF).

Les estacions disponibles són els punts grocs i vermells al mapa.

Posi el ratolí al punt desitjat per veure el nom de l'estació.

Feu clic per veure les observacions i els pronòstics meteorològics.

Per canviar el mapa: feu clic els botons verds amb una creu de color negre per apropar; al botó verd amb un guió per allunyar la imatge; o en les fletxes verdes per a mapes adjacents.


METAR-TAF: